createdAt,value
2023-05-19T00:03:59.093Z,52.34
2023-05-19T00:09:08.247Z,52.49
2023-05-19T00:14:11.463Z,52.71
2023-05-19T00:19:14.256Z,52.93
2023-05-19T00:24:17.004Z,52.98
2023-05-19T00:29:19.702Z,53.31
2023-05-19T00:34:22.425Z,53.28
2023-05-19T00:39:25.222Z,53.43
2023-05-19T00:44:28.041Z,53.45
2023-05-19T00:49:30.861Z,53.75
2023-05-19T00:54:35.936Z,54.00
2023-05-19T00:59:39.175Z,53.84
2023-05-19T01:04:44.926Z,54.01
2023-05-19T01:09:47.782Z,54.11
2023-05-19T01:14:50.843Z,54.24
2023-05-19T01:20:13.700Z,54.16
2023-05-19T01:25:42.936Z,54.32
2023-05-19T01:30:52.666Z,54.47
2023-05-19T01:35:56.552Z,54.69
2023-05-19T01:41:01.451Z,54.72
2023-05-19T01:46:04.578Z,55.12
2023-05-19T01:51:07.314Z,55.57
2023-05-19T01:56:10.152Z,55.62
2023-05-19T02:01:36.949Z,55.84
2023-05-19T02:07:05.655Z,55.50
2023-05-19T02:12:24.183Z,55.75
2023-05-19T02:17:33.260Z,55.84
2023-05-19T02:22:36.462Z,56.18
2023-05-19T02:27:40.055Z,56.20
2023-05-19T02:32:46.074Z,56.42
2023-05-19T02:37:48.862Z,56.44
2023-05-19T02:42:51.651Z,56.57
2023-05-19T02:47:54.393Z,56.96
2023-05-19T02:52:57.175Z,57.15
2023-05-19T02:57:59.984Z,57.20
2023-05-19T03:03:04.664Z,57.26
2023-05-19T03:08:07.558Z,57.59
2023-05-19T03:13:10.297Z,57.66
2023-05-19T03:18:13.497Z,57.61
2023-05-19T03:23:16.459Z,57.61
2023-05-19T03:28:19.255Z,57.87
2023-05-19T03:33:22.405Z,58.17
2023-05-19T03:38:25.339Z,58.20
2023-05-19T03:43:28.062Z,58.53
2023-05-19T03:48:30.849Z,58.67
2023-05-19T03:53:33.574Z,58.40
2023-05-19T03:58:39.902Z,58.14
2023-05-19T04:03:42.626Z,58.49
2023-05-19T04:08:45.357Z,58.77
2023-05-19T04:13:48.107Z,58.65
2023-05-19T04:18:50.972Z,58.63
2023-05-19T04:23:53.931Z,58.86
2023-05-19T04:28:57.135Z,58.73
2023-05-19T04:34:01.894Z,58.69
2023-05-19T04:39:08.090Z,58.83
2023-05-19T04:44:11.180Z,58.95
2023-05-19T04:49:14.506Z,58.88
2023-05-19T04:54:17.494Z,59.00
2023-05-19T04:59:20.262Z,58.78
2023-05-19T05:04:23.850Z,58.99
2023-05-19T05:09:26.589Z,58.88
2023-05-19T05:14:29.702Z,59.14
2023-05-19T05:19:33.736Z,58.89
2023-05-19T05:24:36.875Z,58.92
2023-05-19T05:29:39.639Z,58.88
2023-05-19T05:34:43.877Z,59.13
2023-05-19T05:39:47.145Z,58.86
2023-05-19T05:44:49.953Z,58.89
2023-05-19T05:50:05.360Z,58.92
2023-05-19T05:55:18.602Z,58.89
2023-05-19T06:00:22.789Z,58.73
2023-05-19T06:05:26.585Z,58.81
2023-05-19T06:10:29.956Z,58.67
2023-05-19T06:15:32.925Z,58.60
2023-05-19T06:20:36.052Z,58.53
2023-05-19T06:25:39.325Z,58.57
2023-05-19T06:30:46.374Z,58.53
2023-05-19T06:35:52.347Z,58.18
2023-05-19T06:40:55.181Z,58.02
2023-05-19T06:46:16.777Z,58.02
2023-05-19T06:51:22.393Z,57.74
2023-05-19T06:56:25.208Z,57.53
2023-05-19T07:01:29.187Z,57.48
2023-05-19T07:06:32.134Z,57.33
2023-05-19T07:11:35.047Z,57.06
2023-05-19T07:16:37.792Z,56.80
2023-05-19T07:21:42.489Z,56.40
2023-05-19T07:26:45.305Z,56.22
2023-05-19T07:31:48.146Z,55.71
2023-05-19T07:36:51.940Z,55.62
2023-05-19T07:41:55.807Z,55.33
2023-05-19T07:46:58.767Z,55.32
2023-05-19T07:57:22.575Z,55.80
2023-05-19T08:02:26.061Z,55.66
2023-05-19T08:07:34.366Z,55.54
2023-05-19T08:12:37.173Z,55.63
2023-05-19T08:17:39.983Z,55.46
2023-05-19T08:22:43.290Z,55.15
2023-05-19T08:27:46.291Z,54.85
2023-05-19T08:32:49.789Z,54.90
2023-05-19T08:37:54.431Z,54.85
2023-05-19T08:43:09.023Z,54.81
2023-05-19T08:48:20.036Z,54.59
2023-05-19T08:53:34.525Z,54.41
2023-05-19T08:58:41.344Z,54.16
2023-05-19T09:03:46.094Z,53.91
2023-05-19T09:08:50.651Z,53.75
2023-05-19T09:13:54.466Z,53.57
2023-05-19T09:18:59.560Z,53.14
2023-05-19T09:24:06.806Z,52.94
2023-05-19T09:29:17.412Z,52.57
2023-05-19T09:34:22.273Z,51.73
2023-05-19T09:39:26.266Z,51.74
2023-05-19T09:44:29.887Z,51.78
2023-05-19T09:49:33.091Z,51.34
2023-05-19T09:54:36.174Z,51.15
2023-05-19T09:59:39.720Z,51.03
2023-05-19T10:04:43.317Z,50.72
2023-05-19T10:09:47.071Z,50.37
2023-05-19T10:14:50.013Z,50.34
2023-05-19T10:19:54.913Z,50.13
2023-05-19T10:24:57.707Z,50.24
2023-05-19T10:30:13.235Z,50.49
2023-05-19T10:35:38.772Z,50.39
2023-05-19T10:41:10.837Z,50.37
2023-05-19T10:46:17.771Z,50.71
2023-05-19T10:51:33.896Z,51.25
2023-05-19T10:56:45.233Z,51.83
2023-05-19T11:01:48.450Z,52.54
2023-05-19T11:06:52.353Z,53.25
2023-05-19T11:11:55.484Z,53.54
2023-05-19T11:16:59.602Z,54.09
2023-05-19T11:22:13.849Z,54.30
2023-05-19T11:27:34.157Z,54.93
2023-05-19T11:32:42.139Z,55.15
2023-05-19T11:37:46.182Z,55.65
2023-05-19T11:42:48.940Z,55.72
2023-05-19T11:48:02.024Z,55.83
2023-05-19T11:53:06.478Z,56.32
2023-05-19T11:58:09.260Z,56.55
2023-05-19T12:03:12.227Z,56.83
2023-05-19T12:08:18.447Z,57.21
2023-05-19T12:13:22.933Z,57.35
2023-05-19T12:18:30.565Z,57.61
2023-05-19T12:23:34.752Z,58.25
2023-05-19T12:28:37.552Z,58.52
2023-05-19T12:33:40.440Z,58.93
2023-05-19T12:38:43.878Z,58.86
2023-05-19T12:43:46.640Z,59.25
2023-05-19T12:48:49.407Z,59.55
2023-05-19T12:53:52.253Z,59.90
2023-05-19T12:58:55.168Z,60.17
2023-05-19T13:03:58.032Z,60.44
2023-05-19T13:09:01.082Z,60.42
2023-05-19T13:14:03.797Z,60.73
2023-05-19T13:19:06.657Z,60.82
2023-05-19T13:24:09.736Z,60.87
2023-05-19T13:29:12.480Z,61.14
2023-05-19T13:34:15.457Z,61.04
2023-05-19T13:39:18.187Z,60.66
2023-05-19T13:44:20.898Z,60.13
2023-05-19T13:49:23.692Z,59.65
2023-05-19T13:54:27.110Z,59.40
2023-05-19T13:59:30.008Z,59.36
2023-05-19T14:04:32.750Z,59.29
2023-05-19T14:09:35.508Z,59.30
2023-05-19T14:14:38.516Z,59.38
2023-05-19T14:19:41.245Z,59.50
2023-05-19T14:24:43.965Z,59.63
2023-05-19T14:29:49.806Z,59.64
2023-05-19T14:34:53.247Z,59.73
2023-05-19T14:39:57.946Z,59.73
2023-05-19T14:45:01.201Z,59.74
2023-05-19T14:50:05.922Z,59.76
2023-05-19T14:55:09.733Z,59.68
2023-05-19T15:00:14.398Z,59.50
2023-05-19T15:05:17.367Z,59.34
2023-05-19T15:10:24.342Z,59.39
2023-05-19T15:15:27.280Z,59.27
2023-05-19T15:20:30.043Z,59.25
2023-05-19T15:25:33.030Z,59.39
2023-05-19T15:30:36.018Z,59.68
2023-05-19T15:35:39.674Z,59.69
2023-05-19T15:40:43.087Z,59.77
2023-05-19T15:45:46.202Z,59.69
2023-05-19T15:50:48.997Z,59.75
2023-05-19T15:55:52.269Z,59.74
2023-05-19T16:00:55.163Z,59.76
2023-05-19T16:05:58.027Z,59.75
2023-05-19T16:11:00.909Z,59.78
2023-05-19T16:16:03.883Z,59.79
2023-05-19T16:21:06.648Z,59.83
2023-05-19T16:26:09.378Z,59.85
2023-05-19T16:31:12.162Z,59.87
2023-05-19T16:36:14.995Z,59.90
2023-05-19T16:41:17.784Z,59.99
2023-05-19T16:46:20.706Z,59.89
2023-05-19T16:51:23.699Z,60.00
2023-05-19T16:56:26.437Z,60.11
2023-05-19T17:01:29.184Z,59.99
2023-05-19T17:06:31.949Z,60.13
2023-05-19T17:11:34.709Z,60.19
2023-05-19T17:16:37.805Z,60.28
2023-05-19T17:21:40.883Z,60.43
2023-05-19T17:26:43.697Z,60.44
2023-05-19T17:31:46.414Z,60.43
2023-05-19T17:36:49.901Z,60.56
2023-05-19T17:41:52.690Z,60.68
2023-05-19T17:46:55.961Z,60.66
2023-05-19T17:51:59.010Z,60.80
2023-05-19T17:57:03.605Z,60.87
2023-05-19T18:02:07.842Z,61.12
2023-05-19T18:07:12.328Z,61.09
2023-05-19T18:12:15.509Z,61.32
2023-05-19T18:17:18.256Z,61.53
2023-05-19T18:22:21.359Z,61.59
2023-05-19T18:27:24.090Z,61.61
2023-05-19T18:32:26.867Z,70.63
2023-05-19T18:37:29.625Z,65.65
2023-05-19T18:42:32.411Z,53.13
2023-05-19T18:47:35.173Z,52.40
2023-05-19T18:52:37.941Z,53.80
2023-05-19T18:57:41.913Z,54.90
2023-05-19T19:02:44.636Z,56.66
2023-05-19T19:07:47.714Z,57.59
2023-05-19T19:12:50.741Z,58.65
2023-05-19T19:17:53.474Z,59.66
2023-05-19T19:22:56.867Z,60.04
2023-05-19T19:27:59.610Z,60.40
2023-05-19T19:33:03.092Z,61.25
2023-05-19T19:38:07.349Z,69.78
2023-05-19T19:43:10.211Z,65.17
2023-05-19T19:48:13.873Z,55.02
2023-05-19T19:53:16.930Z,53.71
2023-05-19T19:58:19.637Z,54.58
2023-05-19T20:03:22.563Z,56.07
2023-05-19T20:08:26.448Z,57.78
2023-05-19T20:13:30.669Z,59.42
2023-05-19T20:18:34.875Z,60.57
2023-05-19T20:23:39.120Z,69.33
2023-05-19T20:28:41.892Z,65.10
2023-05-19T20:33:44.631Z,54.79
2023-05-19T20:38:48.061Z,53.82
2023-05-19T20:43:51.022Z,54.93
2023-05-19T20:48:53.835Z,56.61
2023-05-19T20:53:56.551Z,58.11
2023-05-19T20:58:59.309Z,59.64
2023-05-19T21:04:06.786Z,60.50
2023-05-19T21:09:10.843Z,69.31
2023-05-19T21:14:14.014Z,63.78
2023-05-19T21:19:17.056Z,54.51
2023-05-19T21:24:19.796Z,54.27
2023-05-19T21:29:22.612Z,55.66
2023-05-19T21:34:25.638Z,56.89
2023-05-19T21:39:28.339Z,58.53
2023-05-19T21:44:32.103Z,59.88
2023-05-19T21:49:35.013Z,61.22
2023-05-19T21:54:37.750Z,69.54
2023-05-19T21:59:40.515Z,62.69
2023-05-19T22:04:43.281Z,53.82
2023-05-19T22:09:48.222Z,54.27
2023-05-19T22:14:51.692Z,56.16
2023-05-19T22:19:54.407Z,57.26
2023-05-19T22:24:57.088Z,58.36
2023-05-19T22:29:59.878Z,59.53
2023-05-19T22:35:02.685Z,68.37
2023-05-19T22:40:06.541Z,62.03
2023-05-19T22:45:09.864Z,53.46
2023-05-19T22:50:12.664Z,54.40
2023-05-19T22:55:15.456Z,56.24
2023-05-19T23:00:21.646Z,57.52
2023-05-19T23:05:24.931Z,58.65
2023-05-19T23:10:27.729Z,59.43
2023-05-19T23:15:30.508Z,68.73
2023-05-19T23:20:34.503Z,61.49
2023-05-19T23:25:37.254Z,53.52
2023-05-19T23:30:40.406Z,54.63
2023-05-19T23:35:43.626Z,56.11
2023-05-19T23:40:46.398Z,57.26
2023-05-19T23:45:49.121Z,58.54
2023-05-19T23:50:51.852Z,59.49
2023-05-19T23:55:55.644Z,68.66
